Time;durP1;ratioP1;P1;durP2;ratioP2;P2;SDS_P1;SDS_P2;PMS_P1;PMS_P2;Temp;Humidity;BMP_temperature;BMP_pressure;BME280_temperature;BME280_humidity;BME280_pressure;Samples;Min_cycle;Max_cycle;Signal;HPM_P1;HPM_P2
2023/12/31 00:02:20;;;;;;;26.70;15.90;;;;;;;7.18;72.58;97329.78;4874525;29;20206;-64
2023/12/31 00:04:47;;;;;;;21.90;14.17;;;;;;;7.13;73.38;97330.81;4874645;29;20210;-64
2023/12/31 00:07:14;;;;;;;23.07;14.50;;;;;;;7.11;73.74;97323.09;4873174;29;20253;-63
2023/12/31 00:09:41;;;;;;;26.07;15.00;;;;;;;7.17;72.81;97328.06;4874493;29;20574;-65
2023/12/31 00:12:09;;;;;;;20.33;13.40;;;;;;;6.97;73.80;97319.22;4873400;29;20307;-65
2023/12/31 00:14:37;;;;;;;19.17;12.77;;;;;;;6.87;74.65;97328.06;4874753;29;20614;-65
2023/12/31 00:17:04;;;;;;;17.77;12.80;;;;;;;6.69;75.23;97298.53;4872969;29;20207;-66
2023/12/31 00:19:31;;;;;;;23.87;13.03;;;;;;;6.74;76.01;97322.41;4873151;29;20223;-64
2023/12/31 00:21:59;;;;;;;24.70;13.10;;;;;;;6.78;75.42;97303.41;4873831;29;20580;-64
2023/12/31 00:24:26;;;;;;;20.80;13.70;;;;;;;6.86;75.12;97313.53;4873025;29;20235;-65
2023/12/31 00:26:53;;;;;;;23.63;14.53;;;;;;;6.82;74.76;97319.63;4873923;29;20668;-65
2023/12/31 00:29:20;;;;;;;21.93;13.67;;;;;;;6.78;75.45;97300.03;4872532;29;20212;-64
2023/12/31 00:31:51;;;;;;;26.03;14.00;;;;;;;6.66;75.98;97314.03;4873946;29;20201;-66
2023/12/31 00:34:19;;;;;;;21.27;12.53;;;;;;;6.61;76.07;97315.91;4872362;29;20207;-65
2023/12/31 00:36:47;;;;;;;24.37;13.50;;;;;;;6.62;76.52;97297.00;4873827;29;20208;-66
2023/12/31 00:39:14;;;;;;;20.70;13.17;;;;;;;6.67;76.60;97325.19;4873774;29;20270;-66
2023/12/31 00:41:41;;;;;;;22.20;12.27;;;;;;;6.78;76.57;97324.00;4872828;29;20202;-65
2023/12/31 00:44:08;;;;;;;23.17;14.47;;;;;;;6.83;76.80;97321.31;4873942;29;20755;-64
2023/12/31 00:46:35;;;;;;;20.83;12.87;;;;;;;6.79;76.13;97332.56;4871095;29;20194;-67
2023/12/31 00:49:06;;;;;;;23.00;14.10;;;;;;;6.84;76.02;97338.47;4874160;29;20311;-65
2023/12/31 00:51:33;;;;;;;22.00;13.40;;;;;;;6.85;75.77;97327.25;4872278;29;20303;-65
2023/12/31 00:54:03;;;;;;;24.23;14.00;;;;;;;6.70;76.48;97314.81;4872536;29;20294;-65
2023/12/31 00:56:30;;;;;;;21.23;13.20;;;;;;;6.81;75.29;97335.94;4873368;29;20291;-65
2023/12/31 00:58:58;;;;;;;24.47;15.50;;;;;;;6.81;75.99;97331.66;4872681;29;20242;-63
2023/12/31 01:01:25;;;;;;;20.37;13.40;;;;;;;6.71;76.44;97317.34;4873798;29;20193;-66
2023/12/31 01:03:52;;;;;;;18.57;12.27;;;;;;;6.87;75.79;97333.22;4872048;29;20236;-66
2023/12/31 01:06:19;;;;;;;20.63;12.27;;;;;;;6.46;76.07;97269.97;4873512;29;20294;-66
2023/12/31 01:08:47;;;;;;;21.50;13.37;;;;;;;6.76;76.15;97330.09;4870915;29;20297;-66
2023/12/31 01:11:14;;;;;;;22.10;13.50;;;;;;;6.72;77.45;97331.06;4873367;29;20216;-65
2023/12/31 01:13:41;;;;;;;22.93;13.40;;;;;;;6.75;76.93;97323.25;4872921;29;20229;-67
2023/12/31 01:16:08;;;;;;;20.77;13.77;;;;;;;6.77;76.11;97326.63;4872733;29;20215;-64
2023/12/31 01:18:36;;;;;;;20.10;12.37;;;;;;;6.19;76.02;97256.09;4873497;29;20217;-67
2023/12/31 01:21:03;;;;;;;19.93;12.77;;;;;;;6.42;77.82;97320.66;4870401;29;20672;-64
2023/12/31 01:23:31;;;;;;;21.03;13.17;;;;;;;6.44;77.90;97310.31;4873365;29;20772;-66
2023/12/31 01:25:58;;;;;;;22.53;13.30;;;;;;;6.56;76.46;97310.88;4871797;29;20715;-64
2023/12/31 01:28:25;;;;;;;20.07;14.37;;;;;;;6.52;76.73;97310.97;4873162;29;20795;-63
2023/12/31 01:30:52;;;;;;;21.33;13.17;;;;;;;6.75;76.87;97318.09;4871259;29;20714;-67
2023/12/31 01:33:20;;;;;;;21.70;14.20;;;;;;;6.44;76.91;97311.19;4872471;29;20224;-65
2023/12/31 01:35:47;;;;;;;19.90;12.77;;;;;;;6.39;76.94;97320.72;4871064;29;20290;-65
2023/12/31 01:38:14;;;;;;;17.17;12.87;;;;;;;6.15;77.53;97305.91;4870638;29;20192;-64
2023/12/31 01:40:51;;;;;;;23.40;12.27;;;;;;;6.09;76.78;97306.06;4873146;29;20214;-65
2023/12/31 01:43:19;;;;;;;17.63;11.83;;;;;;;6.16;77.31;97323.00;4870257;29;20705;-65
2023/12/31 01:45:46;;;;;;;18.00;10.90;;;;;;;6.05;77.75;97309.59;4872851;29;20669;-67
2023/12/31 01:48:14;;;;;;;18.03;11.90;;;;;;;6.03;78.38;97305.34;4872407;29;20620;-64
2023/12/31 01:50:42;;;;;;;17.23;10.73;;;;;;;6.03;77.24;97310.50;4872142;29;20206;-65
2023/12/31 01:53:12;;;;;;;16.53;10.87;;;;;;;6.00;78.04;97297.69;4872848;29;20754;-67
2023/12/31 01:55:40;;;;;;;16.90;10.53;;;;;;;6.13;77.57;97317.09;4870009;29;20293;-63
2023/12/31 01:58:07;;;;;;;20.10;12.50;;;;;;;6.20;77.83;97311.75;4871504;29;20278;-62
2023/12/31 02:00:34;;;;;;;18.40;12.77;;;;;;;6.26;77.32;97308.22;4869973;29;20308;-66
2023/12/31 02:03:04;;;;;;;18.30;11.90;;;;;;;6.34;76.69;97309.72;4872735;29;20206;-64
2023/12/31 02:05:32;;;;;;;18.53;11.37;;;;;;;6.33;76.55;97310.59;4871973;29;20274;-63
2023/12/31 02:08:01;;;;;;;24.53;13.17;;;;;;;6.22;76.63;97315.13;4871770;29;20301;-63
2023/12/31 02:10:28;;;;;;;16.80;11.93;;;;;;;6.22;76.77;97314.31;4872624;29;20277;-64
2023/12/31 02:12:56;;;;;;;15.20;11.07;;;;;;;6.10;77.46;97318.00;4871232;29;20265;-63
2023/12/31 02:15:33;;;;;;;18.37;12.07;;;;;;;5.93;77.81;97320.16;4871338;29;20556;-64
2023/12/31 02:18:03;;;;;;;16.23;10.23;;;;;;;5.69;78.89;97318.09;4871402;29;20210;-63
2023/12/31 02:20:31;;;;;;;14.70;10.17;;;;;;;5.51;80.38;97310.78;4872444;29;20208;-63
2023/12/31 02:22:59;;;;;;;18.80;10.90;;;;;;;5.64;79.18;97323.34;4871016;29;20297;-62
2023/12/31 02:25:30;;;;;;;17.17;10.87;;;;;;;5.72;80.20;97310.31;4871337;29;20635;-64
2023/12/31 02:27:58;;;;;;;15.80;10.03;;;;;;;5.84;79.66;97309.22;4871197;29;20205;-64
2023/12/31 02:30:26;;;;;;;16.27;9.77;;;;;;;5.85;78.73;97318.63;4871735;29;20220;-64
2023/12/31 02:32:53;;;;;;;17.97;10.43;;;;;;;5.88;78.47;97310.84;4872598;29;20205;-64
2023/12/31 02:35:20;;;;;;;16.80;9.13;;;;;;;5.81;79.51;97315.25;4871199;29;20279;-64
2023/12/31 02:37:48;;;;;;;14.43;9.27;;;;;;;5.67;79.94;97291.59;4870563;29;20242;-64
2023/12/31 02:40:15;;;;;;;15.57;8.67;;;;;;;5.83;78.54;97310.94;4872029;29;20223;-63
2023/12/31 02:42:44;;;;;;;15.83;9.47;;;;;;;5.74;79.86;97311.13;4871208;29;20189;-65
2023/12/31 02:45:12;;;;;;;12.70;8.73;;;;;;;5.88;79.22;97313.41;4871009;29;20236;-64
2023/12/31 02:47:39;;;;;;;13.53;10.13;;;;;;;5.91;78.80;97309.06;4874548;29;20628;-65
2023/12/31 02:50:07;;;;;;;14.83;9.80;;;;;;;5.87;79.20;97311.72;4876082;29;20683;-63
2023/12/31 02:52:35;;;;;;;17.60;9.77;;;;;;;5.91;78.66;97306.50;4874761;29;20847;-64
2023/12/31 02:55:02;;;;;;;15.53;9.23;;;;;;;6.02;78.22;97312.22;4875811;29;20201;-64
2023/12/31 02:57:32;;;;;;;14.10;9.30;;;;;;;6.10;78.82;97307.72;4875374;29;20232;-63
2023/12/31 02:59:59;;;;;;;16.33;10.30;;;;;;;6.05;78.79;97309.59;4874571;29;20230;-64
2023/12/31 03:02:35;;;;;;;16.60;9.70;;;;;;;5.93;79.36;97309.88;4876292;29;20610;-65
2023/12/31 03:05:03;;;;;;;15.93;10.23;;;;;;;5.98;79.16;97307.16;4873021;29;20256;-64
2023/12/31 03:07:30;;;;;;;15.77;9.60;;;;;;;6.00;79.11;97301.13;4875602;29;20206;-64
2023/12/31 03:09:57;;;;;;;16.93;9.40;;;;;;;6.08;78.50;97308.66;4874439;29;20206;-64
2023/12/31 03:12:24;;;;;;;16.57;9.70;;;;;;;6.04;78.70;97301.91;4875413;29;20214;-63
2023/12/31 03:14:51;;;;;;;13.00;9.07;;;;;;;6.10;77.80;97305.16;4873926;29;20205;-64
2023/12/31 03:17:18;;;;;;;17.63;10.47;;;;;;;6.08;78.72;97312.06;4872805;29;20311;-63
2023/12/31 03:19:45;;;;;;;13.40;9.10;;;;;;;6.06;78.96;97318.97;4874442;29;20354;-64
2023/12/31 03:22:12;;;;;;;13.67;9.67;;;;;;;6.11;78.44;97311.16;4874245;29;20289;-63
2023/12/31 03:24:59;;;;;;;14.43;9.40;;;;;;;6.05;77.11;97319.88;4874237;29;20296;-64
2023/12/31 03:27:27;;;;;;;14.73;9.00;;;;;;;6.07;75.89;97323.25;4873065;29;20288;-64
2023/12/31 03:29:54;;;;;;;16.70;10.00;;;;;;;6.11;76.14;97324.00;4874932;29;20618;-64
2023/12/31 03:32:21;;;;;;;19.43;10.90;;;;;;;6.16;76.54;97320.44;4875037;29;20208;-65
2023/12/31 03:34:49;;;;;;;16.43;11.40;;;;;;;6.10;75.85;97318.00;4872524;29;20202;-64
2023/12/31 03:37:16;;;;;;;16.33;10.87;;;;;;;5.98;75.63;97322.59;4873605;29;20689;-63
2023/12/31 03:39:43;;;;;;;18.73;11.73;;;;;;;5.97;76.34;97326.91;4873528;29;20221;-64
2023/12/31 03:42:10;;;;;;;16.30;11.27;;;;;;;5.76;76.53;97323.06;4873891;29;20208;-64
2023/12/31 03:44:37;;;;;;;18.10;11.47;;;;;;;5.57;77.15;97326.06;4873954;29;20701;-64
2023/12/31 03:47:05;;;;;;;14.93;11.00;;;;;;;5.63;77.35;97328.50;4873563;29;20223;-63
2023/12/31 03:49:33;;;;;;;19.20;11.47;;;;;;;5.63;76.63;97331.06;4874891;29;20209;-63
2023/12/31 03:52:00;;;;;;;17.13;11.13;;;;;;;5.43;76.75;97328.09;4874011;29;20207;-62
2023/12/31 03:54:27;;;;;;;15.97;10.67;;;;;;;5.38;77.43;97335.06;4874967;29;20229;-65
2023/12/31 03:56:54;;;;;;;18.50;10.87;;;;;;;5.30;78.13;97331.78;4872873;29;20280;-64
2023/12/31 03:59:21;;;;;;;16.23;10.50;;;;;;;5.33;77.17;97342.00;4857724;29;20237;-65
2023/12/31 04:01:55;;;;;;;18.03;10.53;;;;;;;5.28;77.72;97343.78;4873474;29;20204;-63
2023/12/31 04:04:23;;;;;;;16.90;10.67;;;;;;;5.30;78.55;97348.03;4872562;29;20243;-64
2023/12/31 04:06:52;;;;;;;13.10;9.40;;;;;;;5.15;78.32;97332.97;4874516;29;20269;-64
2023/12/31 04:09:19;;;;;;;14.97;9.80;;;;;;;5.13;78.94;97339.81;4872069;29;20202;-63
2023/12/31 04:11:46;;;;;;;18.10;9.27;;;;;;;4.64;79.30;97314.25;4874919;29;20266;-64
2023/12/31 04:14:13;;;;;;;16.47;10.67;;;;;;;4.85;79.51;97347.22;4873015;29;20626;-66
2023/12/31 04:16:41;;;;;;;12.87;8.87;;;;;;;4.68;80.56;97344.09;4874659;29;20595;-65
2023/12/31 04:19:09;;;;;;;16.67;10.10;;;;;;;4.74;80.52;97343.97;4872211;29;20199;-66
2023/12/31 04:21:37;;;;;;;18.87;11.03;;;;;;;4.64;81.42;97344.16;4872640;29;20219;-64
2023/12/31 04:24:04;;;;;;;18.73;10.83;;;;;;;4.65;82.95;97351.84;4872673;29;20342;-66
2023/12/31 04:26:31;;;;;;;17.83;11.40;;;;;;;4.75;81.76;97350.81;4872984;29;20239;-66
2023/12/31 04:28:59;;;;;;;14.60;9.23;;;;;;;4.89;80.84;97355.69;4874271;29;20205;-64
2023/12/31 04:31:26;;;;;;;15.73;10.70;;;;;;;4.87;80.97;97335.19;4872939;29;20201;-64
2023/12/31 04:33:53;;;;;;;20.87;11.87;;;;;;;5.10;80.49;97359.56;4873993;29;20205;-64
2023/12/31 04:36:20;;;;;;;17.03;11.43;;;;;;;5.20;79.67;97346.53;4870691;29;20685;-65
2023/12/31 04:38:47;;;;;;;20.47;11.97;;;;;;;4.97;80.40;97360.69;4873780;29;20223;-66
2023/12/31 04:41:21;;;;;;;16.00;9.53;;;;;;;4.89;80.76;97365.94;4873582;29;20218;-67
2023/12/31 04:43:49;;;;;;;17.53;10.93;;;;;;;4.90;81.49;97362.53;4871512;29;20414;-67
2023/12/31 04:46:20;;;;;;;19.53;10.33;;;;;;;4.84;81.34;97357.50;4873905;29;20291;-66
2023/12/31 04:48:47;;;;;;;16.70;10.17;;;;;;;4.73;81.82;97362.81;4872693;29;20216;-68
2023/12/31 04:51:24;;;;;;;18.83;10.57;;;;;;;4.71;82.24;97367.13;4873968;29;20285;-66
2023/12/31 04:53:53;;;;;;;19.87;10.00;;;;;;;4.62;82.81;97372.41;4856297;29;20197;-65
2023/12/31 04:56:24;;;;;;;19.10;10.60;;;;;;;4.47;83.09;97354.72;4873321;29;20593;-64
2023/12/31 04:58:53;;;;;;;17.40;10.13;;;;;;;4.69;83.25;97375.72;4872438;29;20264;-65
2023/12/31 05:01:22;;;;;;;17.07;10.47;;;;;;;4.77;82.60;97369.59;4872514;29;20741;-62
2023/12/31 05:03:49;;;;;;;20.67;11.77;;;;;;;4.58;83.43;97372.47;4873278;29;20211;-63
2023/12/31 05:06:17;;;;;;;20.40;10.43;;;;;;;4.49;84.51;97368.34;4884251;29;20204;-64
2023/12/31 05:08:45;;;;;;;17.27;11.13;;;;;;;4.48;84.05;97363.25;4892180;29;20205;-63
2023/12/31 05:11:17;;;;;;;16.00;9.70;;;;;;;4.52;84.92;97347.81;4891547;29;20195;-64
2023/12/31 05:13:44;;;;;;;17.67;10.90;;;;;;;4.58;85.24;97352.81;4891698;29;20213;-64
2023/12/31 05:16:13;;;;;;;16.90;10.27;;;;;;;4.79;85.05;97347.31;4891842;29;20321;-64
2023/12/31 05:18:50;;;;;;;15.00;9.33;;;;;;;4.79;84.59;97349.88;4889220;29;20204;-64
2023/12/31 05:21:18;;;;;;;16.57;10.63;;;;;;;5.02;84.41;97356.31;4891625;29;20216;-64
2023/12/31 05:23:45;;;;;;;16.17;10.60;;;;;;;5.10;83.46;97346.72;4890367;29;20279;-65
2023/12/31 05:26:12;;;;;;;28.07;11.37;;;;;;;5.24;82.73;97352.44;4891573;29;20672;-65
2023/12/31 05:28:39;;;;;;;16.47;10.37;;;;;;;5.33;81.25;97352.25;4889774;29;20661;-63
2023/12/31 05:31:06;;;;;;;20.00;11.70;;;;;;;5.43;81.30;97358.91;4891137;29;20204;-64
2023/12/31 05:33:34;;;;;;;23.07;11.97;;;;;;;5.53;80.09;97357.81;4891788;29;20208;-65
2023/12/31 05:36:01;;;;;;;19.20;12.27;;;;;;;5.50;80.14;97340.75;4890412;29;20213;-63
2023/12/31 05:38:28;;;;;;;16.30;11.17;;;;;;;5.48;79.93;97346.81;4891676;29;20192;-64
2023/12/31 05:40:56;;;;;;;18.07;11.67;;;;;;;5.59;79.94;97357.69;4890051;29;20624;-64
2023/12/31 05:43:23;;;;;;;21.20;12.37;;;;;;;5.55;80.42;97359.50;4891790;29;20713;-64
2023/12/31 05:45:50;;;;;;;19.07;12.90;;;;;;;5.32;79.58;97325.75;4890230;29;20236;-64
2023/12/31 05:48:17;;;;;;;23.47;13.33;;;;;;;5.69;78.53;97359.19;4891438;29;20353;-63
2023/12/31 05:50:46;;;;;;;25.33;13.87;;;;;;;5.62;78.12;97366.22;4891493;29;20206;-66
2023/12/31 05:53:13;;;;;;;27.90;14.00;;;;;;;5.56;78.93;97368.06;4889941;29;20705;-64
2023/12/31 05:55:41;;;;;;;21.87;11.83;;;;;;;5.41;78.85;97368.34;4891360;29;20206;-64
2023/12/31 05:58:08;;;;;;;20.40;12.13;;;;;;;5.18;79.54;97368.81;4889951;29;20339;-63
2023/12/31 06:00:35;;;;;;;18.73;12.47;;;;;;;5.09;79.65;97378.41;4891225;29;20243;-63
2023/12/31 06:03:03;;;;;;;18.77;12.47;;;;;;;5.05;79.26;97322.91;4890001;29;20255;-64
2023/12/31 06:05:30;;;;;;;19.93;10.70;;;;;;;5.30;78.75;97370.28;4891210;29;20318;-63
2023/12/31 06:07:57;;;;;;;20.33;10.80;;;;;;;4.97;80.34;97367.50;4890901;29;20213;-63
2023/12/31 06:10:25;;;;;;;18.23;11.53;;;;;;;5.00;79.97;97374.31;4889928;29;20296;-63
2023/12/31 06:12:54;;;;;;;17.33;10.87;;;;;;;5.05;80.55;97371.66;4889930;29;20409;-64
2023/12/31 06:15:21;;;;;;;17.50;11.00;;;;;;;5.21;81.00;97373.91;4889984;29;20597;-64
2023/12/31 06:17:48;;;;;;;18.37;13.50;;;;;;;5.22;80.55;97359.31;4891492;29;20208;-64
2023/12/31 06:20:15;;;;;;;22.80;11.50;;;;;;;5.38;80.20;97369.25;4889632;29;20192;-64
2023/12/31 06:22:43;;;;;;;16.97;11.77;;;;;;;5.49;80.32;97363.91;4878455;29;20209;-64
2023/12/31 06:25:10;;;;;;;19.60;10.33;;;;;;;5.66;79.71;97370.41;4853314;29;20430;-64
2023/12/31 06:27:38;;;;;;;16.57;11.40;;;;;;;5.66;78.97;97378.09;4853374;29;20635;-64
2023/12/31 06:30:06;;;;;;;23.13;13.30;;;;;;;5.62;79.40;97380.78;4854300;29;20203;-64
2023/12/31 06:32:35;;;;;;;19.13;12.43;;;;;;;5.71;79.47;97383.13;4852534;29;20226;-64
2023/12/31 06:35:03;;;;;;;17.60;11.43;;;;;;;5.51;80.11;97380.13;4852114;29;20201;-65
2023/12/31 06:37:31;;;;;;;20.40;12.60;;;;;;;5.28;80.30;97357.50;4855561;29;20206;-63
2023/12/31 06:39:59;;;;;;;24.80;15.03;;;;;;;5.52;80.70;97394.69;4862718;29;20217;-64
2023/12/31 06:42:26;;;;;;;23.47;13.57;;;;;;;5.54;80.14;97395.50;4871069;29;20558;-65
2023/12/31 06:44:53;;;;;;;29.90;19.17;;;;;;;5.68;80.17;97394.34;4871837;29;20638;-63
2023/12/31 06:47:21;;;;;;;36.67;17.57;;;;;;;5.67;78.67;97387.50;4872479;29;20208;-64
2023/12/31 06:49:48;;;;;;;37.03;18.07;;;;;;;5.85;77.69;97403.44;4858891;29;20285;-64
2023/12/31 06:52:15;;;;;;;28.37;18.40;;;;;;;5.90;78.44;97396.47;4852442;29;20277;-65
2023/12/31 06:54:42;;;;;;;32.30;19.10;;;;;;;6.02;77.61;97389.31;4850884;29;20203;-64
2023/12/31 06:57:10;;;;;;;31.07;17.77;;;;;;;6.13;77.69;97401.94;4852280;29;20314;-64
2023/12/31 06:59:37;;;;;;;26.20;14.37;;;;;;;6.11;77.88;97396.00;4853282;29;20219;-64
2023/12/31 07:02:04;;;;;;;28.80;13.90;;;;;;;6.09;77.48;97383.19;4852825;29;20214;-67
2023/12/31 07:04:33;;;;;;;28.13;16.80;;;;;;;6.12;78.09;97393.38;4853721;29;20200;-64
2023/12/31 07:07:00;;;;;;;27.57;17.17;;;;;;;6.33;77.20;97398.03;4852239;29;20220;-63
2023/12/31 07:09:28;;;;;;;39.67;26.73;;;;;;;6.34;77.44;97402.31;4856109;29;20225;-64
2023/12/31 07:11:56;;;;;;;49.80;32.73;;;;;;;6.47;77.53;97413.97;4851922;29;20266;-65
2023/12/31 07:14:24;;;;;;;37.97;25.53;;;;;;;6.51;77.13;97413.03;4853180;29;20652;-64
2023/12/31 07:16:51;;;;;;;35.27;20.80;;;;;;;6.48;77.26;97401.97;4852702;29;20592;-65
2023/12/31 07:19:20;;;;;;;29.93;18.03;;;;;;;6.71;75.91;97424.56;4853140;29;20210;-65
2023/12/31 07:21:48;;;;;;;38.00;21.10;;;;;;;6.72;75.53;97427.09;4853877;29;20284;-65
2023/12/31 07:24:15;;;;;;;44.50;23.73;;;;;;;6.68;75.54;97427.25;4852168;29;20662;-64
2023/12/31 07:26:42;;;;;;;31.13;19.50;;;;;;;6.59;75.67;97416.25;4853123;29;20265;-63
2023/12/31 07:29:10;;;;;;;30.10;18.83;;;;;;;6.56;75.91;97425.78;4852117;29;20218;-65
2023/12/31 07:31:38;;;;;;;22.47;15.13;;;;;;;6.65;76.08;97422.16;4859802;29;20202;-65
2023/12/31 07:34:06;;;;;;;24.87;14.27;;;;;;;6.49;75.88;97409.66;4892149;29;20218;-64
2023/12/31 07:36:34;;;;;;;19.47;13.20;;;;;;;6.57;75.12;97432.63;4891874;29;20208;-65
2023/12/31 07:39:03;;;;;;;23.83;14.80;;;;;;;6.70;76.57;97434.00;4893062;29;20217;-66
2023/12/31 07:41:31;;;;;;;22.27;13.33;;;;;;;6.53;76.04;97433.59;4880847;29;20207;-65
2023/12/31 07:43:59;;;;;;;30.40;15.47;;;;;;;6.56;75.65;97441.22;4874643;29;20285;-65
2023/12/31 07:46:29;;;;;;;23.43;13.37;;;;;;;6.52;75.95;97440.47;4873387;29;20237;-65
2023/12/31 07:48:57;;;;;;;25.87;14.90;;;;;;;6.36;77.07;97443.41;4871919;29;20221;-64
2023/12/31 07:51:25;;;;;;;21.80;13.27;;;;;;;6.21;78.17;97434.31;4863435;29;20262;-65
2023/12/31 07:53:52;;;;;;;20.77;13.20;;;;;;;6.31;78.68;97440.09;4865217;29;20254;-65
2023/12/31 07:56:22;;;;;;;16.17;10.57;;;;;;;6.32;77.90;97442.66;4864166;29;20233;-68
2023/12/31 07:58:50;;;;;;;18.77;11.63;;;;;;;6.27;77.84;97452.19;4862210;29;20298;-68
2023/12/31 08:01:19;;;;;;;17.50;10.50;;;;;;;6.22;78.23;97451.41;4866454;29;20203;-67
2023/12/31 08:03:46;;;;;;;16.30;10.47;;;;;;;6.27;78.94;97444.47;4859637;29;20638;-68
2023/12/31 08:06:13;;;;;;;14.93;10.97;;;;;;;6.21;78.66;97442.03;4839007;29;20236;-66
2023/12/31 08:08:44;;;;;;;19.57;11.33;;;;;;;6.40;78.79;97451.03;4854466;29;20203;-63
2023/12/31 08:11:12;;;;;;;18.57;12.43;;;;;;;6.43;78.36;97450.09;4855798;29;20267;-64
2023/12/31 08:13:39;;;;;;;20.23;13.17;;;;;;;6.55;78.20;97452.41;4855675;29;20217;-65
2023/12/31 08:16:07;;;;;;;22.13;12.63;;;;;;;6.65;77.58;97460.75;4854902;29;20197;-64
2023/12/31 08:18:43;;;;;;;22.53;13.80;;;;;;;6.79;77.40;97459.53;4855949;29;20201;-66
2023/12/31 08:21:11;;;;;;;21.77;14.10;;;;;;;6.90;77.55;97467.84;4874658;29;20214;-68
2023/12/31 08:23:40;;;;;;;30.57;18.60;;;;;;;7.11;76.89;97456.19;4892974;29;20711;-70
2023/12/31 08:26:09;;;;;;;35.83;19.80;;;;;;;7.15;76.67;97466.34;4889387;29;20314;-65
2023/12/31 08:28:36;;;;;;;37.73;21.00;;;;;;;7.12;75.97;97404.63;4892519;29;20196;-65
2023/12/31 08:31:04;;;;;;;30.03;18.47;;;;;;;7.60;75.41;97461.72;4891712;29;20199;-66
2023/12/31 08:33:31;;;;;;;21.37;13.90;;;;;;;7.56;73.61;97465.28;4891688;29;20298;-65
2023/12/31 08:35:59;;;;;;;21.97;13.50;;;;;;;7.72;74.00;97458.81;4890950;29;20204;-65
2023/12/31 08:38:27;;;;;;;25.50;15.93;;;;;;;7.59;74.69;97460.03;4891346;29;20294;-65
2023/12/31 08:40:56;;;;;;;24.47;14.83;;;;;;;7.88;73.90;97457.47;4892635;29;20208;-66
2023/12/31 08:43:24;;;;;;;20.83;14.77;;;;;;;8.06;73.79;97467.25;4890614;29;20191;-64
2023/12/31 08:45:54;;;;;;;24.57;15.37;;;;;;;8.22;73.08;97453.00;4892064;29;20622;-69
2023/12/31 08:48:22;;;;;;;32.83;17.90;;;;;;;8.32;72.88;97460.53;4889998;29;20247;-67
2023/12/31 08:50:49;;;;;;;38.37;20.60;;;;;;;8.53;72.32;97454.72;4891685;29;20207;-65
2023/12/31 08:53:16;;;;;;;39.20;20.50;;;;;;;8.66;71.82;97453.41;4892260;29;20206;-69
2023/12/31 08:55:43;;;;;;;41.83;20.37;;;;;;;8.98;70.60;97469.56;4889549;29;20257;-66
2023/12/31 08:58:12;;;;;;;24.77;15.53;;;;;;;8.89;70.71;97463.88;4892412;29;20715;-68
2023/12/31 09:00:39;;;;;;;24.57;14.07;;;;;;;8.96;70.25;97450.69;4874093;29;20208;-66
2023/12/31 09:03:06;;;;;;;21.47;12.97;;;;;;;9.27;69.46;97447.97;4872373;29;20315;-68
2023/12/31 09:05:37;;;;;;;22.27;14.90;;;;;;;9.13;69.03;97444.97;4863034;29;20314;-67
2023/12/31 09:08:05;;;;;;;23.30;14.97;;;;;;;9.31;68.15;97446.09;4847665;29;20693;-67
2023/12/31 09:10:32;;;;;;;22.73;12.57;;;;;;;9.48;67.95;97447.19;4868589;29;20280;-66
2023/12/31 09:13:02;;;;;;;22.50;13.60;;;;;;;9.60;67.47;97428.66;4870528;29;20613;-67
2023/12/31 09:15:30;;;;;;;21.50;14.67;;;;;;;9.59;67.14;97403.72;4873353;29;20195;-67
2023/12/31 09:17:57;;;;;;;25.50;14.30;;;;;;;9.91;66.60;97435.31;4871485;29;20264;-67
2023/12/31 09:20:25;;;;;;;19.83;13.23;;;;;;;9.93;66.19;97426.63;4881157;29;20295;-65
2023/12/31 09:22:54;;;;;;;20.13;13.13;;;;;;;10.12;65.96;97419.88;4871631;29;20208;-67
2023/12/31 09:25:22;;;;;;;22.40;14.30;;;;;;;10.12;65.49;97419.88;4872381;29;20253;-69
2023/12/31 09:27:50;;;;;;;30.40;14.77;;;;;;;10.07;65.90;97411.41;4855856;29;20695;-68
2023/12/31 09:30:17;;;;;;;22.60;14.97;;;;;;;9.95;66.43;97387.75;4870101;29;20261;-68
2023/12/31 09:32:44;;;;;;;26.80;15.00;;;;;;;10.06;66.14;97414.03;4872763;29;20212;-66
2023/12/31 09:35:11;;;;;;;24.93;13.33;;;;;;;10.34;65.43;97407.81;4868230;29;20196;-68
2023/12/31 09:37:39;;;;;;;22.37;12.50;;;;;;;10.40;65.30;97389.44;4872869;29;20192;-69
2023/12/31 09:40:06;;;;;;;20.57;12.57;;;;;;;10.53;64.85;97406.16;4868536;29;20297;-66
2023/12/31 09:42:54;;;;;;;17.20;10.70;;;;;;;10.42;65.54;97397.16;4872682;29;20209;-67
2023/12/31 09:45:24;;;;;;;16.53;10.43;;;;;;;10.34;65.85;97394.00;4866829;29;20713;-67
2023/12/31 09:47:53;;;;;;;16.63;11.00;;;;;;;10.64;64.63;97396.22;4871223;29;20239;-69
2023/12/31 09:50:24;;;;;;;19.60;10.30;;;;;;;10.63;64.70;97380.75;4872697;29;20674;-66
2023/12/31 09:52:59;;;;;;;21.00;12.00;;;;;;;10.67;65.32;97376.28;4871065;29;20220;-71
2023/12/31 09:55:28;;;;;;;17.87;11.07;;;;;;;10.88;64.97;97383.19;4870785;29;20652;-68
2023/12/31 09:57:56;;;;;;;20.20;9.80;;;;;;;10.87;64.33;97379.75;4869430;29;20241;-70
2023/12/31 10:00:24;;;;;;;14.10;8.93;;;;;;;10.56;65.00;97369.81;4870462;29;20213;-67
2023/12/31 10:02:51;;;;;;;13.50;7.77;;;;;;;10.65;64.94;97371.19;4871745;29;20302;-68
2023/12/31 10:05:23;;;;;;;14.47;9.00;;;;;;;10.82;65.13;97370.50;4870717;29;20191;-67
2023/12/31 10:07:54;;;;;;;14.63;9.00;;;;;;;10.95;64.44;97366.47;4871901;29;20656;-67
2023/12/31 10:10:22;;;;;;;13.87;9.13;;;;;;;10.99;63.86;97357.66;4869147;29;20637;-68
2023/12/31 10:12:51;;;;;;;14.57;10.13;;;;;;;10.97;64.52;97354.28;4871731;29;20192;-68
2023/12/31 10:15:22;;;;;;;18.83;11.20;;;;;;;11.32;64.06;97356.22;4869706;29;20205;-68
2023/12/31 10:17:51;;;;;;;36.60;17.00;;;;;;;10.88;65.54;97334.78;4869814;29;20211;-67
2023/12/31 10:20:25;;;;;;;19.57;10.80;;;;;;;11.06;65.04;97344.38;4870057;29;20236;-68
2023/12/31 10:22:53;;;;;;;93.50;35.63;;;;;;;10.97;66.04;97344.78;4871262;29;20307;-66
2023/12/31 10:25:24;;;;;;;19.83;12.30;;;;;;;10.85;65.61;97337.53;4872322;29;20226;-66
2023/12/31 10:27:51;;;;;;;594.63;239.43;;;;;;;11.00;65.01;97334.28;4870316;29;20212;-66
2023/12/31 10:30:18;;;;;;;38.87;20.00;;;;;;;11.20;64.42;97346.38;4870541;29;20232;-66
2023/12/31 10:32:46;;;;;;;12.90;8.37;;;;;;;11.27;63.39;97335.66;4863477;29;20207;-66
2023/12/31 10:35:21;;;;;;;14.60;9.20;;;;;;;11.37;63.64;97331.75;4857645;29;20208;-66
2023/12/31 10:38:02;;;;;;;13.20;8.77;;;;;;;11.41;63.52;97335.94;4853557;29;20217;-66
2023/12/31 10:40:31;;;;;;;21.33;10.93;;;;;;;11.28;64.43;97332.19;4852312;29;20274;-65
2023/12/31 10:42:59;;;;;;;24.97;13.77;;;;;;;11.26;64.20;97326.22;4853586;29;20274;-65
2023/12/31 10:45:31;;;;;;;26.67;15.87;;;;;;;11.32;64.06;97310.38;4849827;29;20666;-66
2023/12/31 10:48:01;;;;;;;27.97;15.47;;;;;;;11.67;63.41;97307.97;4853333;29;20674;-66
2023/12/31 10:50:30;;;;;;;14.67;10.30;;;;;;;11.70;62.29;97313.03;4852554;29;20662;-66
2023/12/31 10:53:01;;;;;;;12.40;9.40;;;;;;;11.67;62.34;97300.19;4852334;29;20302;-67
2023/12/31 10:55:33;;;;;;;10.97;8.67;;;;;;;11.62;62.97;97307.34;4853285;29;20205;-66
2023/12/31 10:58:01;;;;;;;14.47;10.43;;;;;;;11.58;62.79;97295.41;4850488;29;20560;-67
2023/12/31 11:00:31;;;;;;;12.80;7.97;;;;;;;11.96;61.87;97305.72;4853379;29;20210;-66
2023/12/31 11:03:00;;;;;;;15.07;9.40;;;;;;;12.05;61.69;97294.94;4852035;29;20216;-65
2023/12/31 11:05:30;;;;;;;11.60;8.53;;;;;;;11.89;61.41;97295.72;4852620;29;20216;-66
2023/12/31 11:07:59;;;;;;;12.37;7.63;;;;;;;11.66;62.10;97291.59;4855300;29;20201;-65
2023/12/31 11:10:27;;;;;;;14.00;8.50;;;;;;;11.82;61.34;97269.22;4855784;29;20229;-66
2023/12/31 11:12:55;;;;;;;12.90;9.03;;;;;;;11.98;61.05;97270.16;4856690;29;20196;-65
2023/12/31 11:15:24;;;;;;;15.97;9.57;;;;;;;11.89;60.73;97272.38;4854050;29;20313;-66
2023/12/31 11:18:27;;;;;;;15.33;9.87;;;;;;;11.72;60.32;97216.06;4855642;29;20211;-65
2023/12/31 11:21:27;;;;;;;14.43;7.90;;;;;;;12.26;60.37;97262.72;4856071;29;20203;-65
2023/12/31 11:24:16;;;;;;;15.07;9.77;;;;;;;12.13;60.90;97238.28;4853738;29;20970;-65
2023/12/31 11:26:44;;;;;;;17.27;9.27;;;;;;;12.44;60.92;97261.00;4862732;29;20329;-66
2023/12/31 11:29:11;;;;;;;15.83;8.50;;;;;;;12.33;61.00;97242.50;4865489;29;20217;-66
2023/12/31 11:31:41;;;;;;;11.33;7.90;;;;;;;12.35;60.65;97251.03;4874961;29;20210;-65